sensor_id;sensor_type;location;lat;lon;timestamp;temperature;humidity
32502;DHT22;18952;52.516;13.460;2023-08-21T00:00:45;22.80;99.90
32502;DHT22;18952;52.516;13.460;2023-08-21T00:03:13;22.80;99.90
32502;DHT22;18952;52.516;13.460;2023-08-21T00:05:40;22.70;99.90
32502;DHT22;18952;52.516;13.460;2023-08-21T00:08:07;22.70;99.90
32502;DHT22;18952;52.516;13.460;2023-08-21T00:10:37;22.60;99.90
32502;DHT22;18952;52.516;13.460;2023-08-21T00:13:05;22.60;99.90
32502;DHT22;18952;52.516;13.460;2023-08-21T00:15:32;22.60;99.90
32502;DHT22;18952;52.516;13.460;2023-08-21T00:17:59;22.60;99.90
32502;DHT22;18952;52.516;13.460;2023-08-21T00:20:25;22.60;99.90
32502;DHT22;18952;52.516;13.460;2023-08-21T00:22:53;22.60;99.90
32502;DHT22;18952;52.516;13.460;2023-08-21T00:25:21;22.50;99.90
32502;DHT22;18952;52.516;13.460;2023-08-21T00:27:48;22.50;99.90
32502;DHT22;18952;52.516;13.460;2023-08-21T00:30:15;22.50;99.90
32502;DHT22;18952;52.516;13.460;2023-08-21T00:32:42;22.40;99.90
32502;DHT22;18952;52.516;13.460;2023-08-21T00:35:09;22.40;99.90
32502;DHT22;18952;52.516;13.460;2023-08-21T00:37:35;22.40;99.90
32502;DHT22;18952;52.516;13.460;2023-08-21T00:40:02;22.40;99.90
32502;DHT22;18952;52.516;13.460;2023-08-21T00:42:29;22.40;99.90
32502;DHT22;18952;52.516;13.460;2023-08-21T00:44:56;22.40;99.90
32502;DHT22;18952;52.516;13.460;2023-08-21T00:47:23;22.30;99.90
32502;DHT22;18952;52.516;13.460;2023-08-21T00:49:50;22.30;99.90
32502;DHT22;18952;52.516;13.460;2023-08-21T00:52:17;22.30;99.90
32502;DHT22;18952;52.516;13.460;2023-08-21T00:54:44;22.30;99.90
32502;DHT22;18952;52.516;13.460;2023-08-21T00:57:12;22.30;99.90
32502;DHT22;18952;52.516;13.460;2023-08-21T00:59:39;22.20;99.90
32502;DHT22;18952;52.516;13.460;2023-08-21T01:02:05;22.20;99.90
32502;DHT22;18952;52.516;13.460;2023-08-21T01:04:32;22.20;99.90
32502;DHT22;18952;52.516;13.460;2023-08-21T01:06:59;22.20;99.90
32502;DHT22;18952;52.516;13.460;2023-08-21T01:14:54;22.10;99.90
32502;DHT22;18952;52.516;13.460;2023-08-21T01:17:25;22.10;99.90
32502;DHT22;18952;52.516;13.460;2023-08-21T01:19:53;22.10;99.90
32502;DHT22;18952;52.516;13.460;2023-08-21T01:22:20;22.10;99.90
32502;DHT22;18952;52.516;13.460;2023-08-21T01:24:47;22.10;99.90
32502;DHT22;18952;52.516;13.460;2023-08-21T01:27:14;22.10;99.90
32502;DHT22;18952;52.516;13.460;2023-08-21T01:29:41;22.20;99.90
32502;DHT22;18952;52.516;13.460;2023-08-21T01:34:59;22.20;99.90
32502;DHT22;18952;52.516;13.460;2023-08-21T01:37:26;22.20;99.90
32502;DHT22;18952;52.516;13.460;2023-08-21T01:39:55;22.20;99.90
32502;DHT22;18952;52.516;13.460;2023-08-21T01:42:24;22.20;99.90
32502;DHT22;18952;52.516;13.460;2023-08-21T01:44:51;22.20;99.90
32502;DHT22;18952;52.516;13.460;2023-08-21T01:47:17;22.20;99.90
32502;DHT22;18952;52.516;13.460;2023-08-21T01:49:44;22.20;99.90
32502;DHT22;18952;52.516;13.460;2023-08-21T01:52:11;22.20;99.90
32502;DHT22;18952;52.516;13.460;2023-08-21T01:54:38;22.20;99.90
32502;DHT22;18952;52.516;13.460;2023-08-21T01:57:04;22.20;99.90
32502;DHT22;18952;52.516;13.460;2023-08-21T01:59:31;22.20;99.90
32502;DHT22;18952;52.516;13.460;2023-08-21T02:01:58;22.20;99.90
32502;DHT22;18952;52.516;13.460;2023-08-21T02:04:24;22.10;99.90
32502;DHT22;18952;52.516;13.460;2023-08-21T02:06:51;22.10;99.90
32502;DHT22;18952;52.516;13.460;2023-08-21T02:09:18;22.20;99.90
32502;DHT22;18952;52.516;13.460;2023-08-21T02:11:45;22.20;99.90
32502;DHT22;18952;52.516;13.460;2023-08-21T02:14:11;22.10;99.90
32502;DHT22;18952;52.516;13.460;2023-08-21T02:16:38;22.10;99.90
32502;DHT22;18952;52.516;13.460;2023-08-21T02:19:05;22.10;99.90
32502;DHT22;18952;52.516;13.460;2023-08-21T02:21:32;22.10;99.90
32502;DHT22;18952;52.516;13.460;2023-08-21T02:23:59;22.10;99.90
32502;DHT22;18952;52.516;13.460;2023-08-21T02:26:25;22.00;99.90
32502;DHT22;18952;52.516;13.460;2023-08-21T02:28:53;22.00;99.90
32502;DHT22;18952;52.516;13.460;2023-08-21T02:31:19;22.10;99.90
32502;DHT22;18952;52.516;13.460;2023-08-21T02:33:46;22.00;99.90
32502;DHT22;18952;52.516;13.460;2023-08-21T02:36:13;22.00;99.90
32502;DHT22;18952;52.516;13.460;2023-08-21T02:38:40;22.00;99.90
32502;DHT22;18952;52.516;13.460;2023-08-21T02:41:06;22.00;99.90
32502;DHT22;18952;52.516;13.460;2023-08-21T02:43:34;22.00;99.90
32502;DHT22;18952;52.516;13.460;2023-08-21T02:46:00;22.00;99.90
32502;DHT22;18952;52.516;13.460;2023-08-21T02:48:27;22.00;99.90
32502;DHT22;18952;52.516;13.460;2023-08-21T02:50:54;22.00;99.90
32502;DHT22;18952;52.516;13.460;2023-08-21T02:53:21;22.00;99.90
32502;DHT22;18952;52.516;13.460;2023-08-21T02:55:47;22.00;99.90
32502;DHT22;18952;52.516;13.460;2023-08-21T02:58:14;22.00;99.90
32502;DHT22;18952;52.516;13.460;2023-08-21T03:00:41;22.00;99.90
32502;DHT22;18952;52.516;13.460;2023-08-21T03:03:07;22.00;99.90
32502;DHT22;18952;52.516;13.460;2023-08-21T03:05:34;22.00;99.90
32502;DHT22;18952;52.516;13.460;2023-08-21T03:08:01;22.00;99.90
32502;DHT22;18952;52.516;13.460;2023-08-21T03:10:28;22.10;99.90
32502;DHT22;18952;52.516;13.460;2023-08-21T03:12:55;22.00;99.90
32502;DHT22;18952;52.516;13.460;2023-08-21T03:15:21;22.00;99.90
32502;DHT22;18952;52.516;13.460;2023-08-21T03:17:48;22.00;99.90
32502;DHT22;18952;52.516;13.460;2023-08-21T03:20:15;22.00;99.90
32502;DHT22;18952;52.516;13.460;2023-08-21T03:22:42;22.10;99.90
32502;DHT22;18952;52.516;13.460;2023-08-21T03:25:09;22.00;99.90
32502;DHT22;18952;52.516;13.460;2023-08-21T03:27:35;22.00;99.90
32502;DHT22;18952;52.516;13.460;2023-08-21T03:30:02;22.00;99.90
32502;DHT22;18952;52.516;13.460;2023-08-21T03:32:29;22.00;99.90
32502;DHT22;18952;52.516;13.460;2023-08-21T03:34:56;22.00;99.90
32502;DHT22;18952;52.516;13.460;2023-08-21T03:37:23;22.10;99.90
32502;DHT22;18952;52.516;13.460;2023-08-21T03:39:50;22.10;99.90
32502;DHT22;18952;52.516;13.460;2023-08-21T03:42:17;22.10;99.90
32502;DHT22;18952;52.516;13.460;2023-08-21T03:44:43;22.00;99.90
32502;DHT22;18952;52.516;13.460;2023-08-21T03:47:10;22.10;99.90
32502;DHT22;18952;52.516;13.460;2023-08-21T03:49:37;22.00;99.90
32502;DHT22;18952;52.516;13.460;2023-08-21T03:52:04;22.00;99.90
32502;DHT22;18952;52.516;13.460;2023-08-21T03:54:31;22.00;99.90
32502;DHT22;18952;52.516;13.460;2023-08-21T03:56:57;22.00;99.90
32502;DHT22;18952;52.516;13.460;2023-08-21T03:59:24;22.00;99.90
32502;DHT22;18952;52.516;13.460;2023-08-21T04:01:51;22.00;99.90
32502;DHT22;18952;52.516;13.460;2023-08-21T04:04:17;21.90;99.90
32502;DHT22;18952;52.516;13.460;2023-08-21T04:06:44;21.90;99.90
32502;DHT22;18952;52.516;13.460;2023-08-21T04:09:11;21.90;99.90
32502;DHT22;18952;52.516;13.460;2023-08-21T04:11:38;21.90;99.90
32502;DHT22;18952;52.516;13.460;2023-08-21T04:14:04;22.00;99.90
32502;DHT22;18952;52.516;13.460;2023-08-21T04:16:31;22.00;99.90
32502;DHT22;18952;52.516;13.460;2023-08-21T04:18:58;22.00;99.90
32502;DHT22;18952;52.516;13.460;2023-08-21T04:21:24;22.00;99.90
32502;DHT22;18952;52.516;13.460;2023-08-21T04:23:51;22.00;99.90
32502;DHT22;18952;52.516;13.460;2023-08-21T04:26:18;22.00;99.90
32502;DHT22;18952;52.516;13.460;2023-08-21T04:28:45;22.00;99.90
32502;DHT22;18952;52.516;13.460;2023-08-21T04:31:12;22.00;99.90
32502;DHT22;18952;52.516;13.460;2023-08-21T04:33:39;22.00;99.90
32502;DHT22;18952;52.516;13.460;2023-08-21T04:36:06;22.00;99.90
32502;DHT22;18952;52.516;13.460;2023-08-21T04:38:32;22.00;99.90
32502;DHT22;18952;52.516;13.460;2023-08-21T04:41:09;22.10;99.90
32502;DHT22;18952;52.516;13.460;2023-08-21T04:43:36;22.10;99.90
32502;DHT22;18952;52.516;13.460;2023-08-21T04:46:04;22.10;99.90
32502;DHT22;18952;52.516;13.460;2023-08-21T04:48:31;22.20;99.90
32502;DHT22;18952;52.516;13.460;2023-08-21T04:50:57;22.20;99.90
32502;DHT22;18952;52.516;13.460;2023-08-21T04:53:24;22.20;99.90
32502;DHT22;18952;52.516;13.460;2023-08-21T04:55:51;22.20;99.90
32502;DHT22;18952;52.516;13.460;2023-08-21T04:58:18;22.20;99.90
32502;DHT22;18952;52.516;13.460;2023-08-21T05:00:45;22.20;99.90
32502;DHT22;18952;52.516;13.460;2023-08-21T05:03:11;22.10;99.90
32502;DHT22;18952;52.516;13.460;2023-08-21T05:05:38;22.10;99.90
32502;DHT22;18952;52.516;13.460;2023-08-21T05:08:05;22.10;99.90
32502;DHT22;18952;52.516;13.460;2023-08-21T05:10:32;22.20;99.90
32502;DHT22;18952;52.516;13.460;2023-08-21T05:12:59;22.20;99.90
32502;DHT22;18952;52.516;13.460;2023-08-21T05:15:26;22.20;99.90
32502;DHT22;18952;52.516;13.460;2023-08-21T05:17:53;22.20;99.90
32502;DHT22;18952;52.516;13.460;2023-08-21T05:20:19;22.20;99.90
32502;DHT22;18952;52.516;13.460;2023-08-21T05:22:46;22.20;99.90
32502;DHT22;18952;52.516;13.460;2023-08-21T05:25:13;22.10;99.90
32502;DHT22;18952;52.516;13.460;2023-08-21T05:27:40;22.10;99.90
32502;DHT22;18952;52.516;13.460;2023-08-21T05:30:07;22.10;99.90
32502;DHT22;18952;52.516;13.460;2023-08-21T05:32:34;22.10;99.90
32502;DHT22;18952;52.516;13.460;2023-08-21T05:35:03;22.10;99.90
32502;DHT22;18952;52.516;13.460;2023-08-21T05:37:30;22.00;99.90
32502;DHT22;18952;52.516;13.460;2023-08-21T05:40:00;22.10;99.90
32502;DHT22;18952;52.516;13.460;2023-08-21T05:42:26;22.00;99.90
32502;DHT22;18952;52.516;13.460;2023-08-21T05:44:53;22.00;99.90
32502;DHT22;18952;52.516;13.460;2023-08-21T05:47:20;22.10;99.90
32502;DHT22;18952;52.516;13.460;2023-08-21T05:49:47;22.10;99.90
32502;DHT22;18952;52.516;13.460;2023-08-21T05:52:13;22.20;99.90
32502;DHT22;18952;52.516;13.460;2023-08-21T05:54:40;22.30;99.90
32502;DHT22;18952;52.516;13.460;2023-08-21T05:57:07;22.40;99.90
32502;DHT22;18952;52.516;13.460;2023-08-21T05:59:33;22.40;99.90
32502;DHT22;18952;52.516;13.460;2023-08-21T06:02:00;22.50;99.90
32502;DHT22;18952;52.516;13.460;2023-08-21T06:04:27;22.50;99.90
32502;DHT22;18952;52.516;13.460;2023-08-21T06:06:54;22.50;99.90
32502;DHT22;18952;52.516;13.460;2023-08-21T06:09:22;22.60;99.90
32502;DHT22;18952;52.516;13.460;2023-08-21T06:11:48;22.70;99.90
32502;DHT22;18952;52.516;13.460;2023-08-21T06:14:15;22.80;99.90
32502;DHT22;18952;52.516;13.460;2023-08-21T06:16:42;22.80;99.90
32502;DHT22;18952;52.516;13.460;2023-08-21T06:19:09;22.70;99.90
32502;DHT22;18952;52.516;13.460;2023-08-21T06:21:36;22.70;99.90
32502;DHT22;18952;52.516;13.460;2023-08-21T06:24:02;22.70;99.90
32502;DHT22;18952;52.516;13.460;2023-08-21T06:26:29;22.80;99.90
32502;DHT22;18952;52.516;13.460;2023-08-21T06:28:56;22.90;99.90
32502;DHT22;18952;52.516;13.460;2023-08-21T06:31:23;23.00;99.90
32502;DHT22;18952;52.516;13.460;2023-08-21T06:33:49;23.00;99.90
32502;DHT22;18952;52.516;13.460;2023-08-21T06:36:16;22.80;99.90
32502;DHT22;18952;52.516;13.460;2023-08-21T06:38:43;22.80;99.90
32502;DHT22;18952;52.516;13.460;2023-08-21T06:41:10;22.90;99.90
32502;DHT22;18952;52.516;13.460;2023-08-21T06:43:38;22.90;99.90
32502;DHT22;18952;52.516;13.460;2023-08-21T06:46:10;22.80;99.90
32502;DHT22;18952;52.516;13.460;2023-08-21T06:48:39;22.80;99.90
32502;DHT22;18952;52.516;13.460;2023-08-21T06:51:06;22.80;99.90
32502;DHT22;18952;52.516;13.460;2023-08-21T06:53:33;22.80;99.90
32502;DHT22;18952;52.516;13.460;2023-08-21T06:56:00;22.80;99.90
32502;DHT22;18952;52.516;13.460;2023-08-21T06:58:27;22.90;99.90
32502;DHT22;18952;52.516;13.460;2023-08-21T07:00:54;22.90;99.90
32502;DHT22;18952;52.516;13.460;2023-08-21T07:03:22;22.90;99.90
32502;DHT22;18952;52.516;13.460;2023-08-21T07:05:56;22.90;99.90
32502;DHT22;18952;52.516;13.460;2023-08-21T07:08:23;23.00;99.90
32502;DHT22;18952;52.516;13.460;2023-08-21T07:10:51;23.00;99.90
32502;DHT22;18952;52.516;13.460;2023-08-21T07:13:18;23.00;99.90
32502;DHT22;18952;52.516;13.460;2023-08-21T07:15:46;23.10;99.90
32502;DHT22;18952;52.516;13.460;2023-08-21T07:18:13;23.10;99.90
32502;DHT22;18952;52.516;13.460;2023-08-21T07:20:41;23.10;99.90
32502;DHT22;18952;52.516;13.460;2023-08-21T07:23:08;23.10;99.90
32502;DHT22;18952;52.516;13.460;2023-08-21T07:25:34;23.10;99.90
32502;DHT22;18952;52.516;13.460;2023-08-21T07:28:01;23.10;99.90
32502;DHT22;18952;52.516;13.460;2023-08-21T07:30:28;23.20;99.90
32502;DHT22;18952;52.516;13.460;2023-08-21T07:32:55;23.20;99.90
32502;DHT22;18952;52.516;13.460;2023-08-21T07:35:22;23.20;99.90
32502;DHT22;18952;52.516;13.460;2023-08-21T07:37:49;23.20;99.90
32502;DHT22;18952;52.516;13.460;2023-08-21T07:40:16;23.30;99.90
32502;DHT22;18952;52.516;13.460;2023-08-21T07:42:42;23.20;99.90
32502;DHT22;18952;52.516;13.460;2023-08-21T07:45:10;23.20;99.90
32502;DHT22;18952;52.516;13.460;2023-08-21T07:47:37;23.20;99.90
32502;DHT22;18952;52.516;13.460;2023-08-21T07:50:05;23.20;99.90
32502;DHT22;18952;52.516;13.460;2023-08-21T07:52:33;23.30;99.90
32502;DHT22;18952;52.516;13.460;2023-08-21T07:55:00;23.20;99.90
32502;DHT22;18952;52.516;13.460;2023-08-21T07:57:28;23.10;99.90
32502;DHT22;18952;52.516;13.460;2023-08-21T07:59:55;23.10;99.90
32502;DHT22;18952;52.516;13.460;2023-08-21T08:02:22;23.20;99.90
32502;DHT22;18952;52.516;13.460;2023-08-21T08:04:50;23.30;99.90
32502;DHT22;18952;52.516;13.460;2023-08-21T08:07:16;23.40;99.90
32502;DHT22;18952;52.516;13.460;2023-08-21T08:09:43;23.60;99.90
32502;DHT22;18952;52.516;13.460;2023-08-21T08:12:10;23.70;99.90
32502;DHT22;18952;52.516;13.460;2023-08-21T08:14:38;23.80;99.90
32502;DHT22;18952;52.516;13.460;2023-08-21T08:17:05;23.90;99.90
32502;DHT22;18952;52.516;13.460;2023-08-21T08:19:31;24.10;99.90
32502;DHT22;18952;52.516;13.460;2023-08-21T08:21:58;24.20;99.90
32502;DHT22;18952;52.516;13.460;2023-08-21T08:24:25;24.20;99.90
32502;DHT22;18952;52.516;13.460;2023-08-21T08:26:53;24.20;99.90
32502;DHT22;18952;52.516;13.460;2023-08-21T08:29:20;24.20;99.90
32502;DHT22;18952;52.516;13.460;2023-08-21T08:31:46;24.20;99.90
32502;DHT22;18952;52.516;13.460;2023-08-21T08:34:13;24.20;99.90
32502;DHT22;18952;52.516;13.460;2023-08-21T08:36:40;24.20;99.90
32502;DHT22;18952;52.516;13.460;2023-08-21T08:39:07;24.20;99.90
32502;DHT22;18952;52.516;13.460;2023-08-21T08:41:56;24.20;99.90
32502;DHT22;18952;52.516;13.460;2023-08-21T08:44:25;24.20;99.90
32502;DHT22;18952;52.516;13.460;2023-08-21T08:46:52;24.00;99.90
32502;DHT22;18952;52.516;13.460;2023-08-21T08:49:20;24.00;99.90
32502;DHT22;18952;52.516;13.460;2023-08-21T08:51:50;24.00;99.90
32502;DHT22;18952;52.516;13.460;2023-08-21T08:54:20;24.10;99.90
32502;DHT22;18952;52.516;13.460;2023-08-21T08:56:47;24.10;99.90
32502;DHT22;18952;52.516;13.460;2023-08-21T08:59:15;24.00;99.90
32502;DHT22;18952;52.516;13.460;2023-08-21T09:01:42;24.00;99.90
32502;DHT22;18952;52.516;13.460;2023-08-21T09:04:09;23.90;99.90
32502;DHT22;18952;52.516;13.460;2023-08-21T09:06:37;23.70;99.90
32502;DHT22;18952;52.516;13.460;2023-08-21T09:09:05;23.70;99.90
32502;DHT22;18952;52.516;13.460;2023-08-21T09:11:32;24.00;99.90
32502;DHT22;18952;52.516;13.460;2023-08-21T09:14:00;24.20;99.90
32502;DHT22;18952;52.516;13.460;2023-08-21T09:16:27;24.40;99.90
32502;DHT22;18952;52.516;13.460;2023-08-21T09:18:55;24.60;99.40
32502;DHT22;18952;52.516;13.460;2023-08-21T09:21:24;24.80;97.20
32502;DHT22;18952;52.516;13.460;2023-08-21T09:23:57;25.00;93.80
32502;DHT22;18952;52.516;13.460;2023-08-21T09:26:24;25.00;91.20
32502;DHT22;18952;52.516;13.460;2023-08-21T09:28:52;25.00;92.20
32502;DHT22;18952;52.516;13.460;2023-08-21T09:31:24;25.00;91.60
32502;DHT22;18952;52.516;13.460;2023-08-21T09:33:59;25.10;91.30
32502;DHT22;18952;52.516;13.460;2023-08-21T09:36:27;25.00;91.60
32502;DHT22;18952;52.516;13.460;2023-08-21T09:38:54;25.00;92.80
32502;DHT22;18952;52.516;13.460;2023-08-21T09:41:21;25.00;93.60
32502;DHT22;18952;52.516;13.460;2023-08-21T09:43:48;25.00;93.80
32502;DHT22;18952;52.516;13.460;2023-08-21T09:46:24;25.00;93.80
32502;DHT22;18952;52.516;13.460;2023-08-21T09:48:54;25.00;93.90
32502;DHT22;18952;52.516;13.460;2023-08-21T09:51:21;24.90;93.90
32502;DHT22;18952;52.516;13.460;2023-08-21T09:53:49;24.90;94.20
32502;DHT22;18952;52.516;13.460;2023-08-21T09:56:18;25.00;93.80
32502;DHT22;18952;52.516;13.460;2023-08-21T09:58:47;25.00;93.80
32502;DHT22;18952;52.516;13.460;2023-08-21T10:01:16;25.10;94.20
32502;DHT22;18952;52.516;13.460;2023-08-21T10:03:44;25.30;94.30
32502;DHT22;18952;52.516;13.460;2023-08-21T10:06:11;25.50;94.30
32502;DHT22;18952;52.516;13.460;2023-08-21T10:08:39;25.50;94.30
32502;DHT22;18952;52.516;13.460;2023-08-21T10:11:09;25.60;93.30
32502;DHT22;18952;52.516;13.460;2023-08-21T10:13:39;25.40;92.80
32502;DHT22;18952;52.516;13.460;2023-08-21T10:16:07;25.30;93.10
32502;DHT22;18952;52.516;13.460;2023-08-21T10:18:36;25.10;92.60
32502;DHT22;18952;52.516;13.460;2023-08-21T10:21:20;25.00;92.30
32502;DHT22;18952;52.516;13.460;2023-08-21T10:23:48;24.90;92.00
32502;DHT22;18952;52.516;13.460;2023-08-21T10:26:19;24.90;92.40
32502;DHT22;18952;52.516;13.460;2023-08-21T10:31:30;24.90;92.50
32502;DHT22;18952;52.516;13.460;2023-08-21T10:33:59;25.00;92.50
32502;DHT22;18952;52.516;13.460;2023-08-21T10:44:34;25.50;92.50
32502;DHT22;18952;52.516;13.460;2023-08-21T10:47:21;25.60;92.30
32502;DHT22;18952;52.516;13.460;2023-08-21T10:49:52;25.50;92.70
32502;DHT22;18952;52.516;13.460;2023-08-21T10:52:29;25.50;92.50
32502;DHT22;18952;52.516;13.460;2023-08-21T10:55:00;25.60;92.40
32502;DHT22;18952;52.516;13.460;2023-08-21T10:57:28;25.40;91.40
32502;DHT22;18952;52.516;13.460;2023-08-21T11:02:30;25.30;91.60
32502;DHT22;18952;52.516;13.460;2023-08-21T11:04:59;25.40;91.30
32502;DHT22;18952;52.516;13.460;2023-08-21T11:07:26;25.60;91.20
32502;DHT22;18952;52.516;13.460;2023-08-21T11:09:53;25.70;91.00
32502;DHT22;18952;52.516;13.460;2023-08-21T11:12:22;25.80;90.80
32502;DHT22;18952;52.516;13.460;2023-08-21T11:14:49;25.90;90.50
32502;DHT22;18952;52.516;13.460;2023-08-21T11:17:17;25.90;90.90
32502;DHT22;18952;52.516;13.460;2023-08-21T11:19:43;26.00;90.60
32502;DHT22;18952;52.516;13.460;2023-08-21T11:22:11;26.00;90.70
32502;DHT22;18952;52.516;13.460;2023-08-21T11:24:42;26.00;90.90
32502;DHT22;18952;52.516;13.460;2023-08-21T11:27:17;26.00;91.00
32502;DHT22;18952;52.516;13.460;2023-08-21T11:29:50;26.00;91.20
32502;DHT22;18952;52.516;13.460;2023-08-21T11:32:21;26.10;91.10
32502;DHT22;18952;52.516;13.460;2023-08-21T11:34:54;26.10;91.20
32502;DHT22;18952;52.516;13.460;2023-08-21T11:37:25;26.10;91.00
32502;DHT22;18952;52.516;13.460;2023-08-21T11:39:58;26.20;90.60
32502;DHT22;18952;52.516;13.460;2023-08-21T11:42:32;26.40;90.40
32502;DHT22;18952;52.516;13.460;2023-08-21T11:45:00;26.50;90.10
32502;DHT22;18952;52.516;13.460;2023-08-21T11:47:32;26.60;88.90
32502;DHT22;18952;52.516;13.460;2023-08-21T11:50:06;26.70;88.40
32502;DHT22;18952;52.516;13.460;2023-08-21T11:52:37;26.80;87.80
32502;DHT22;18952;52.516;13.460;2023-08-21T11:55:08;27.00;88.90
32502;DHT22;18952;52.516;13.460;2023-08-21T11:57:35;27.10;89.20
32502;DHT22;18952;52.516;13.460;2023-08-21T12:00:02;27.20;89.10
32502;DHT22;18952;52.516;13.460;2023-08-21T12:02:29;27.20;88.70
32502;DHT22;18952;52.516;13.460;2023-08-21T12:05:06;27.20;87.20
32502;DHT22;18952;52.516;13.460;2023-08-21T12:07:33;27.20;85.70
32502;DHT22;18952;52.516;13.460;2023-08-21T12:10:01;27.10;86.50
32502;DHT22;18952;52.516;13.460;2023-08-21T12:12:28;27.10;85.30
32502;DHT22;18952;52.516;13.460;2023-08-21T12:14:54;27.20;84.80
32502;DHT22;18952;52.516;13.460;2023-08-21T12:17:21;27.20;85.10
32502;DHT22;18952;52.516;13.460;2023-08-21T12:19:48;27.30;84.80
32502;DHT22;18952;52.516;13.460;2023-08-21T12:22:15;27.10;85.00
32502;DHT22;18952;52.516;13.460;2023-08-21T12:24:42;27.00;85.20
32502;DHT22;18952;52.516;13.460;2023-08-21T12:27:08;27.00;85.10
32502;DHT22;18952;52.516;13.460;2023-08-21T12:29:35;26.90;85.20
32502;DHT22;18952;52.516;13.460;2023-08-21T12:32:02;26.80;85.70
32502;DHT22;18952;52.516;13.460;2023-08-21T12:34:33;26.60;86.30
32502;DHT22;18952;52.516;13.460;2023-08-21T12:37:00;26.60;87.10
32502;DHT22;18952;52.516;13.460;2023-08-21T12:39:27;26.70;87.80
32502;DHT22;18952;52.516;13.460;2023-08-21T12:41:53;26.90;87.20
32502;DHT22;18952;52.516;13.460;2023-08-21T12:44:20;26.80;86.20
32502;DHT22;18952;52.516;13.460;2023-08-21T12:46:47;26.90;85.40
32502;DHT22;18952;52.516;13.460;2023-08-21T12:49:14;27.10;84.40
32502;DHT22;18952;52.516;13.460;2023-08-21T12:51:41;27.00;84.10
32502;DHT22;18952;52.516;13.460;2023-08-21T12:54:07;26.90;84.00
32502;DHT22;18952;52.516;13.460;2023-08-21T12:56:34;26.90;84.70
32502;DHT22;18952;52.516;13.460;2023-08-21T12:59:01;26.80;85.30
32502;DHT22;18952;52.516;13.460;2023-08-21T13:01:28;27.00;85.50
32502;DHT22;18952;52.516;13.460;2023-08-21T13:03:55;27.10;85.70
32502;DHT22;18952;52.516;13.460;2023-08-21T13:06:22;27.30;85.80
32502;DHT22;18952;52.516;13.460;2023-08-21T13:08:49;27.40;84.30
32502;DHT22;18952;52.516;13.460;2023-08-21T13:11:18;27.50;84.70
32502;DHT22;18952;52.516;13.460;2023-08-21T13:13:45;27.60;84.00
32502;DHT22;18952;52.516;13.460;2023-08-21T13:16:12;27.90;78.30
32502;DHT22;18952;52.516;13.460;2023-08-21T13:18:38;28.10;77.60
32502;DHT22;18952;52.516;13.460;2023-08-21T13:21:05;28.20;75.20
32502;DHT22;18952;52.516;13.460;2023-08-21T13:23:32;28.30;74.20
32502;DHT22;18952;52.516;13.460;2023-08-21T13:25:59;28.30;74.10
32502;DHT22;18952;52.516;13.460;2023-08-21T13:28:27;28.50;74.70
32502;DHT22;18952;52.516;13.460;2023-08-21T13:30:54;28.50;73.50
32502;DHT22;18952;52.516;13.460;2023-08-21T13:33:21;28.30;73.50
32502;DHT22;18952;52.516;13.460;2023-08-21T13:35:47;28.20;74.00
32502;DHT22;18952;52.516;13.460;2023-08-21T13:38:14;28.20;74.00
32502;DHT22;18952;52.516;13.460;2023-08-21T13:40:41;28.40;73.70
32502;DHT22;18952;52.516;13.460;2023-08-21T13:43:08;28.60;73.80
32502;DHT22;18952;52.516;13.460;2023-08-21T13:45:35;28.80;73.70
32502;DHT22;18952;52.516;13.460;2023-08-21T13:48:03;28.80;74.10
32502;DHT22;18952;52.516;13.460;2023-08-21T13:50:30;28.60;73.80
32502;DHT22;18952;52.516;13.460;2023-08-21T13:52:56;28.40;74.10
32502;DHT22;18952;52.516;13.460;2023-08-21T13:55:23;28.30;74.90
32502;DHT22;18952;52.516;13.460;2023-08-21T13:57:50;28.30;75.60
32502;DHT22;18952;52.516;13.460;2023-08-21T14:00:17;28.00;76.30
32502;DHT22;18952;52.516;13.460;2023-08-21T14:02:43;27.70;76.40
32502;DHT22;18952;52.516;13.460;2023-08-21T14:05:11;27.90;76.50
32502;DHT22;18952;52.516;13.460;2023-08-21T14:07:38;28.30;76.50
32502;DHT22;18952;52.516;13.460;2023-08-21T14:10:08;28.90;75.70
32502;DHT22;18952;52.516;13.460;2023-08-21T14:12:35;29.40;73.80
32502;DHT22;18952;52.516;13.460;2023-08-21T14:15:07;29.40;73.10
32502;DHT22;18952;52.516;13.460;2023-08-21T14:17:34;29.50;72.50
32502;DHT22;18952;52.516;13.460;2023-08-21T14:20:02;29.80;72.50
32502;DHT22;18952;52.516;13.460;2023-08-21T14:22:29;30.20;71.20
32502;DHT22;18952;52.516;13.460;2023-08-21T14:24:56;29.90;70.40
32502;DHT22;18952;52.516;13.460;2023-08-21T14:27:23;29.70;70.90
32502;DHT22;18952;52.516;13.460;2023-08-21T14:29:50;29.50;72.00
32502;DHT22;18952;52.516;13.460;2023-08-21T14:32:16;29.20;72.20
32502;DHT22;18952;52.516;13.460;2023-08-21T14:34:43;28.80;71.90
32502;DHT22;18952;52.516;13.460;2023-08-21T14:37:11;28.70;72.30
32502;DHT22;18952;52.516;13.460;2023-08-21T14:39:38;28.60;71.30
32502;DHT22;18952;52.516;13.460;2023-08-21T14:42:05;28.60;70.50
32502;DHT22;18952;52.516;13.460;2023-08-21T14:44:32;28.80;70.20
32502;DHT22;18952;52.516;13.460;2023-08-21T14:46:58;29.20;69.80
32502;DHT22;18952;52.516;13.460;2023-08-21T14:49:29;29.50;69.60
32502;DHT22;18952;52.516;13.460;2023-08-21T14:51:56;29.70;67.40
32502;DHT22;18952;52.516;13.460;2023-08-21T14:54:23;29.70;66.60
32502;DHT22;18952;52.516;13.460;2023-08-21T14:56:50;29.60;66.00
32502;DHT22;18952;52.516;13.460;2023-08-21T14:59:17;29.60;65.90
32502;DHT22;18952;52.516;13.460;2023-08-21T15:01:44;29.60;65.90
32502;DHT22;18952;52.516;13.460;2023-08-21T15:04:10;29.80;66.00
32502;DHT22;18952;52.516;13.460;2023-08-21T15:06:38;29.90;65.70
32502;DHT22;18952;52.516;13.460;2023-08-21T15:09:06;29.90;64.50
32502;DHT22;18952;52.516;13.460;2023-08-21T15:11:33;30.10;64.60
32502;DHT22;18952;52.516;13.460;2023-08-21T15:14:03;30.10;64.20
32502;DHT22;18952;52.516;13.460;2023-08-21T15:16:30;30.20;64.00
32502;DHT22;18952;52.516;13.460;2023-08-21T15:18:57;30.10;63.10
32502;DHT22;18952;52.516;13.460;2023-08-21T15:21:24;29.80;63.90
32502;DHT22;18952;52.516;13.460;2023-08-21T15:23:50;29.60;64.40
32502;DHT22;18952;52.516;13.460;2023-08-21T15:26:17;29.30;64.40
32502;DHT22;18952;52.516;13.460;2023-08-21T15:28:44;29.00;64.80
32502;DHT22;18952;52.516;13.460;2023-08-21T15:31:11;28.80;65.60
32502;DHT22;18952;52.516;13.460;2023-08-21T15:33:38;28.50;65.70
32502;DHT22;18952;52.516;13.460;2023-08-21T15:36:05;28.40;66.40
32502;DHT22;18952;52.516;13.460;2023-08-21T15:38:31;28.50;66.30